Terminal Aerodrome Forecast
Issued by NWS

Home | Current Version | Previous Version | Text Only | Print | Product List | Glossary On
Versions: 1 2 3 4 5 6 7 8 9 10 11 12 13 14 15 16 17 18 19 20
000
FTUS41 KPBZ 010540
TAFZZV
TAF
KZZV 010540Z 0106/0206 22003KT 5SM BR FEW050
     FM010800 21003KT 2SM BR SCT010
     FM011500 27008KT P6SM BKN035
     FM011900 30010KT P6SM SCT040
     FM020000 00000KT P6SM SCT250=

USA.gov is the U.S. government's official web portal to all federal, state and local government web resources and services.